F/V Alcor — FMLY — position and weather

sailwx.info

Track history (hours):
 
Tides and Currents Weather Stations Pressure Air Temp Water Temp Dewpoint Dewpoint Depression Visibility Wind Speed Wind Dir Waves Ship Positions

F/V Alcor

Last reported at 2017-Oct-20 18:00 UTC. Time now 2017-Oct-20 18:15 UTC.
Position N 47°49' W 004°23'.

Length 18 m.

MMSI: 228263900.

Date/timePositionNaut miles runAvg speedWind from/ knotsBaromVisibWave heightAir tempDewpointWater temp
2017-Oct-20 18:00N 47°49' W 004°23'0 0.0
2017-Oct-20 17:30N 47°49' W 004°23'0 0.0
2017-Oct-20 17:00N 47°49' W 004°23'0 0.0
2017-Oct-20 16:30N 47°49' W 004°23'0 0.0
2017-Oct-20 16:00N 47°49' W 004°23'0 0.0
2017-Oct-20 11:53N 47°49' W 004°23'0 0.0
2017-Oct-19 14:47N 47°49' W 004°23'0 0.0
2017-Oct-19 00:11N 47°49' W 004°23'0 0.0
2017-Oct-18 23:49N 47°49' W 004°23'0 0.0
2017-Oct-18 23:30N 47°49' W 004°23'0 0.0
2017-Oct-18 23:00N 47°49' W 004°23'15 1.5
2017-Oct-18 12:45N 47°34' W 004°21'0 0.4
2017-Oct-18 12:19N 47°34' W 004°21'1 0.5
2017-Oct-18 11:17N 47°34' W 004°22'0 0.6
2017-Oct-18 10:25N 47°34' W 004°23'1 0.3
2017-Oct-18 06:40N 47°34' W 004°22'0 1.1
2017-Oct-18 06:30N 47°34' W 004°22'0 0.8
2017-Oct-18 06:00N 47°34' W 004°22'0 0.8
2017-Oct-18 05:30N 47°34' W 004°23'0 0.6
2017-Oct-18 05:00N 47°34' W 004°23'0 0.7
2017-Oct-18 04:30N 47°34' W 004°24'0 0.2
2017-Oct-18 03:58N 47°34' W 004°24'0 0.2
2017-Oct-18 03:26N 47°34' W 004°24'5 6.2
2017-Oct-18 02:36N 47°39' W 004°24'3 7.6
2017-Oct-18 02:14N 47°42' W 004°25'2 7.6
2017-Oct-18 01:57N 47°44' W 004°25'3 7.6
2017-Oct-18 01:30N 47°47' W 004°25'2 3.6
2017-Oct-18 00:59N 47°49' W 004°23'0 0.0
2017-Oct-18 00:31N 47°49' W 004°23'0 0.0
2017-Oct-17 23:58N 47°49' W 004°23'0 0.0
2017-Oct-17 23:25N 47°49' W 004°23'0 0.0
2017-Oct-17 22:56N 47°49' W 004°23'0 0.0
2017-Oct-17 22:30N 47°49' W 004°23'0 0.0
2017-Oct-17 21:51N 47°49' W 004°23'0 0.0
2017-Oct-17 21:27N 47°49' W 004°23'0 0.0
2017-Oct-17 21:00N 47°49' W 004°23'0 0.0
2017-Oct-17 20:27N 47°49' W 004°23'0 0.0
2017-Oct-17 19:58N 47°49' W 004°23'0 0.0
2017-Oct-17 19:28N 47°49' W 004°23'0 0.0
2017-Oct-17 19:01N 47°49' W 004°23'0 0.0
2017-Oct-17 18:28N 47°49' W 004°23'0 0.0
2017-Oct-17 18:00N 47°49' W 004°23'0 0.0
2017-Oct-17 17:28N 47°49' W 004°23'0 0.0
2017-Oct-17 17:01N 47°49' W 004°23'0 0.0
2017-Oct-17 16:29N 47°49' W 004°23'0 0.0
2017-Oct-17 15:57N 47°49' W 004°23'0 0.5
2017-Oct-17 15:30N 47°49' W 004°23'1 1.7
2017-Oct-17 14:58N 47°49' W 004°24'4 8.5
2017-Oct-17 14:28N 47°44' W 004°24'4 8.9
2017-Oct-17 13:58N 47°40' W 004°24'5 2.0
2017-Oct-17 11:38N 47°36' W 004°28'0 0.2
2017-Oct-17 11:15N 47°36' W 004°28'0 0.5
2017-Oct-17 11:00N 47°36' W 004°28'0 0.8
2017-Oct-17 10:26N 47°36' W 004°29'0 0.7
2017-Oct-17 09:53N 47°36' W 004°29'0 0.9
2017-Oct-17 09:27N 47°36' W 004°30'1 0.6
2017-Oct-17 08:19N 47°36' W 004°31'1 3.7
2017-Oct-17 07:57N 47°35' W 004°29'0 0.8
2017-Oct-17 07:30N 47°35' W 004°28'0 0.3
2017-Oct-17 06:42N 47°35' W 004°29'0 0.4
2017-Oct-17 06:27N 47°35' W 004°29'1 0.9
2017-Oct-17 05:44N 47°35' W 004°30'0 0.5
2017-Oct-17 05:30N 47°35' W 004°30'0 0.8
2017-Oct-17 05:00N 47°35' W 004°31'0 0.5
2017-Oct-17 04:30N 47°35' W 004°31'0 0.5
2017-Oct-17 04:00N 47°35' W 004°31'0 0.2
2017-Oct-17 03:14N 47°35' W 004°31'1 3.5
2017-Oct-17 02:54N 47°36' W 004°31'6 7.8
2017-Oct-17 02:08N 47°42' W 004°28'2 7.5
2017-Oct-17 01:49N 47°44' W 004°27'2 7.5
2017-Oct-17 01:30N 47°46' W 004°26'3 6.0
2017-Oct-17 00:59N 47°49' W 004°23'0 0.0
2017-Oct-17 00:30N 47°49' W 004°23'0 0.0
2017-Oct-16 23:59N 47°49' W 004°23'0 0.0
2017-Oct-16 23:28N 47°49' W 004°23'0 0.0
2017-Oct-16 22:58N 47°49' W 004°23'0 0.0
2017-Oct-16 22:29N 47°49' W 004°23'0 0.0
2017-Oct-16 22:00N 47°49' W 004°23'0 0.0
2017-Oct-16 21:30N 47°49' W 004°23'0 0.0
2017-Oct-16 21:00N 47°49' W 004°23'0 0.0
2017-Oct-16 20:30N 47°49' W 004°23'0 0.0
2017-Oct-16 19:59N 47°49' W 004°23'0 0.0
2017-Oct-16 19:30N 47°49' W 004°23'0 0.0
2017-Oct-16 19:00N 47°49' W 004°23'0 0.0
2017-Oct-16 18:31N 47°49' W 004°23'0 0.0
2017-Oct-16 17:58N 47°49' W 004°23'0 0.0
2017-Oct-16 17:31N 47°49' W 004°23'0 0.0
2017-Oct-16 17:00N 47°49' W 004°23'0 0.0
2017-Oct-16 16:30N 47°49' W 004°23'0 0.0
2017-Oct-16 15:59N 47°49' W 004°23'0 0.0
2017-Oct-16 15:29N 47°49' W 004°23'0 0.0
2017-Oct-16 15:00N 47°49' W 004°23'0 0.0
2017-Oct-16 14:29N 47°49' W 004°23'12 1.2
2017-Oct-16 04:26N 47°42' W 004°38'0 0.7
2017-Oct-16 04:00N 47°42' W 004°38'0 0.2
2017-Oct-16 03:29N 47°42' W 004°38'2 2.4
2017-Oct-16 02:31N 47°43' W 004°35'0 7.1
2017-Oct-16 02:30N 47°43' W 004°35'5 7.0
2017-Oct-16 01:48N 47°46' W 004°29'2 7.3
2017-Oct-16 01:29N 47°48' W 004°26'2 0.8
2017-Oct-15 22:35N 47°49' W 004°23'0 0.0
2017-Oct-15 22:30N 47°49' W 004°23'0 0.0
2017-Oct-15 22:00N 47°49' W 004°23'0 0.0
2017-Oct-15 21:30N 47°49' W 004°23'0 0.0
2017-Oct-15 20:49N 47°49' W 004°23'0 0.0
2017-Oct-15 20:26N 47°49' W 004°23'0 0.0
2017-Oct-15 20:00N 47°49' W 004°23'0 0.0
2017-Oct-15 19:30N 47°49' W 004°23'0 0.0
2017-Oct-15 19:00N 47°49' W 004°23'0 0.0
2017-Oct-15 18:30N 47°49' W 004°23'0 0.0
2017-Oct-15 17:57N 47°49' W 004°23'0 0.0
2017-Oct-15 17:30N 47°49' W 004°23'0 0.0
2017-Oct-15 17:00N 47°49' W 004°23'0 0.0
2017-Oct-15 16:30N 47°49' W 004°23'0 0.3
2017-Oct-15 15:40N 47°49' W 004°23'1 4.2
2017-Oct-15 15:30N 47°49' W 004°24'4 8.4
2017-Oct-15 15:00N 47°47' W 004°29'9 8.8
2017-Oct-15 14:00N 47°42' W 004°40'2 3.5
2017-Oct-15 13:30N 47°42' W 004°38'3 6.1
2017-Oct-15 13:00N 47°42' W 004°42'4 8.1
2017-Oct-15 12:30N 47°42' W 004°48'1 1.7
2017-Oct-15 12:00N 47°42' W 004°49'0 0.3
2017-Oct-15 11:30N 47°42' W 004°50'0 0.5
2017-Oct-15 11:00N 47°43' W 004°50'0 0.9
2017-Oct-15 10:30N 47°43' W 004°51'0 0.6
2017-Oct-15 10:00N 47°43' W 004°51'0 0.9
2017-Oct-15 09:30N 47°43' W 004°52'0 0.7
2017-Oct-15 09:00N 47°43' W 004°52'0 0.7
2017-Oct-15 08:30N 47°43' W 004°53'0 0.1
2017-Oct-15 08:00N 47°43' W 004°53'0 0.5
2017-Oct-15 07:30N 47°43' W 004°53'0 0.4
2017-Oct-15 07:00N 47°43' W 004°53'1 1.1
2017-Oct-15 06:30N 47°43' W 004°54'0 0.9
2017-Oct-15 06:00N 47°44' W 004°55'0 0.8
2017-Oct-15 05:29N 47°44' W 004°55'0 0.5
2017-Oct-15 05:01N 47°44' W 004°56'0 0.4
2017-Oct-15 04:29N 47°44' W 004°56'1 0.9
2017-Oct-15 03:52N 47°44' W 004°55'3 8.1
2017-Oct-15 03:31N 47°44' W 004°51'4 8.2
2017-Oct-15 02:59N 47°45' W 004°44'4 8.2
2017-Oct-15 02:26N 47°46' W 004°38'4 8.3
2017-Oct-15 01:57N 47°47' W 004°32'4 8.1
2017-Oct-15 01:25N 47°48' W 004°26'2 4.0
2017-Oct-15 00:53N 47°49' W 004°23'0 0.0
2017-Oct-15 00:29N 47°49' W 004°23'0 0.0
2017-Oct-14 23:58N 47°49' W 004°23'0 0.0
2017-Oct-14 23:29N 47°49' W 004°23'0 0.0
2017-Oct-14 22:58N 47°49' W 004°23'0 0.0
2017-Oct-14 22:30N 47°49' W 004°23'0 0.0
2017-Oct-14 19:34N 47°49' W 004°23'0 0.0
2017-Oct-14 19:23N 47°49' W 004°23'0 0.0
2017-Oct-14 19:00N 47°49' W 004°23'0 0.0
2017-Oct-14 18:30N 47°49' W 004°23'0 0.0
2017-Oct-14 15:19N 47°49' W 004°23'3 7.8
2017-Oct-14 14:55N 47°48' W 004°28'4 8.3
2017-Oct-14 14:26N 47°47' W 004°33'6 8.2
2017-Oct-14 13:41N 47°46' W 004°42'1 8.3
2017-Oct-14 13:30N 47°46' W 004°45'5 8.6
2017-Oct-14 12:58N 47°45' W 004°51'2 2.2
2017-Oct-14 12:10N 47°43' W 004°52'4 5.1
2017-Oct-14 11:22N 47°42' W 004°46'0 0.3
2017-Oct-14 10:58N 47°42' W 004°46'0 0.7
2017-Oct-14 10:30N 47°42' W 004°46'0 0.9
2017-Oct-14 10:00N 47°42' W 004°45'0 0.5
2017-Oct-14 09:30N 47°42' W 004°45'0 0.6
2017-Oct-14 09:00N 47°42' W 004°44'1 0.7
2017-Oct-14 08:17N 47°42' W 004°43'1 0.4
2017-Oct-14 06:32N 47°42' W 004°42'0 0.9
2017-Oct-14 06:29N 47°42' W 004°42'1 1.0
2017-Oct-14 05:56N 47°42' W 004°42'0 0.9
2017-Oct-14 05:30N 47°42' W 004°41'1 0.9
2017-Oct-14 04:50N 47°43' W 004°40'0 0.6
2017-Oct-14 04:23N 47°43' W 004°40'0 0.1
2017-Oct-14 03:05N 47°43' W 004°40'0 1.5
2017-Oct-14 02:59N 47°43' W 004°39'4 7.5
2017-Oct-14 02:28N 47°45' W 004°34'4 7.6
2017-Oct-14 01:54N 47°47' W 004°29'4 7.1
2017-Oct-14 01:19N 47°49' W 004°23'0 0.5
2017-Oct-14 00:47N 47°49' W 004°23'0 0.0
2017-Oct-14 00:27N 47°49' W 004°23'0 0.0
2017-Oct-13 23:41N 47°49' W 004°23'0 0.0
2017-Oct-13 23:21N 47°49' W 004°23'0 0.0
2017-Oct-13 22:59N 47°49' W 004°23'0 0.0
2017-Oct-13 21:22N 47°49' W 004°23'0 0.0
2017-Oct-13 20:35N 47°49' W 004°23'0 0.0
2017-Oct-13 20:20N 47°49' W 004°23'0 0.0
2017-Oct-13 19:52N 47°49' W 004°23'0 0.0
2017-Oct-13 17:39N 47°49' W 004°23'10 1.0
2017-Oct-13 07:39N 47°42' W 004°34'0 0.3
2017-Oct-13 07:16N 47°42' W 004°34'1 4.4
2017-Oct-13 06:59N 47°42' W 004°35'1 1.1
2017-Oct-13 06:14N 47°42' W 004°37'0 0.4
2017-Oct-13 05:54N 47°42' W 004°36'2 0.8
2017-Oct-13 03:55N 47°42' W 004°34'0 0.4
2017-Oct-13 03:16N 47°42' W 004°34'9 4.5
2017-Oct-13 01:15N 47°48' W 004°24'1 3.1
2017-Oct-13 00:54N 47°49' W 004°23'0 0.0
2017-Oct-13 00:21N 47°49' W 004°23'0 0.0
2017-Oct-12 23:50N 47°49' W 004°23'0 0.0
2017-Oct-12 23:29N 47°49' W 004°23'0 0.0
2017-Oct-12 22:17N 47°49' W 004°23'0 0.0
2017-Oct-12 21:53N 47°49' W 004°23'0 0.0
2017-Oct-12 17:36N 47°49' W 004°23'0 0.0
2017-Oct-12 17:27N 47°49' W 004°23'0 0.1
2017-Oct-12 14:30N 47°48' W 004°23'10 1.0
2017-Oct-12 04:32N 47°41' W 004°34'0 0.4
2017-Oct-12 04:27N 47°41' W 004°34'0 0.5
2017-Oct-12 03:28N 47°41' W 004°34'4 2.5
2017-Oct-12 02:02N 47°44' W 004°30'1 7.3
2017-Oct-12 01:54N 47°45' W 004°29'3 7.2
2017-Oct-12 01:25N 47°47' W 004°26'2 0.9
2017-Oct-11 23:01N 47°49' W 004°23'0 0.0
2017-Oct-11 23:00N 47°49' W 004°23'0 0.0
2017-Oct-11 22:30N 47°49' W 004°23'0 0.0
2017-Oct-11 21:59N 47°49' W 004°23'0 0.0
2017-Oct-11 21:28N 47°49' W 004°23'0 0.0
2017-Oct-11 20:58N 47°49' W 004°23'0 0.0
2017-Oct-11 20:28N 47°49' W 004°23'0 0.0
2017-Oct-11 19:58N 47°49' W 004°23'0 0.0
2017-Oct-11 19:08N 47°49' W 004°23'0 0.0
2017-Oct-11 18:49N 47°49' W 004°23'  
Track history (hours):
 
Tides and Currents Weather Stations Pressure Air Temp Water Temp Dewpoint Dewpoint Depression Visibility Wind Speed Wind Dir Waves Ship Positions

F/V Alcor

Last reported at 2017-Oct-20 18:00 UTC. Time now 2017-Oct-20 18:15 UTC.
Position N 47°49' W 004°23'.

Length 18 m.

MMSI: 228263900.

Date/timePositionNaut miles runAvg speedWind from/ knotsBaromVisibWave heightAir tempDewpointWater temp
2017-Oct-20 18:00N 47°49' W 004°23'0 0.0
2017-Oct-20 17:30N 47°49' W 004°23'0 0.0
2017-Oct-20 17:00N 47°49' W 004°23'0 0.0
2017-Oct-20 16:30N 47°49' W 004°23'0 0.0
2017-Oct-20 16:00N 47°49' W 004°23'0 0.0
2017-Oct-20 11:53N 47°49' W 004°23'0 0.0
2017-Oct-19 14:47N 47°49' W 004°23'0 0.0
2017-Oct-19 00:11N 47°49' W 004°23'0 0.0
2017-Oct-18 23:49N 47°49' W 004°23'0 0.0
2017-Oct-18 23:30N 47°49' W 004°23'0 0.0
2017-Oct-18 23:00N 47°49' W 004°23'15 1.5
2017-Oct-18 12:45N 47°34' W 004°21'0 0.4
2017-Oct-18 12:19N 47°34' W 004°21'1 0.5
2017-Oct-18 11:17N 47°34' W 004°22'0 0.6
2017-Oct-18 10:25N 47°34' W 004°23'1 0.3
2017-Oct-18 06:40N 47°34' W 004°22'0 1.1
2017-Oct-18 06:30N 47°34' W 004°22'0 0.8
2017-Oct-18 06:00N 47°34' W 004°22'0 0.8
2017-Oct-18 05:30N 47°34' W 004°23'0 0.6
2017-Oct-18 05:00N 47°34' W 004°23'0 0.7
2017-Oct-18 04:30N 47°34' W 004°24'0 0.2
2017-Oct-18 03:58N 47°34' W 004°24'0 0.2
2017-Oct-18 03:26N 47°34' W 004°24'5 6.2
2017-Oct-18 02:36N 47°39' W 004°24'3 7.6
2017-Oct-18 02:14N 47°42' W 004°25'2 7.6
2017-Oct-18 01:57N 47°44' W 004°25'3 7.6
2017-Oct-18 01:30N 47°47' W 004°25'2 3.6
2017-Oct-18 00:59N 47°49' W 004°23'0 0.0
2017-Oct-18 00:31N 47°49' W 004°23'0 0.0
2017-Oct-17 23:58N 47°49' W 004°23'0 0.0
2017-Oct-17 23:25N 47°49' W 004°23'0 0.0
2017-Oct-17 22:56N 47°49' W 004°23'0 0.0
2017-Oct-17 22:30N 47°49' W 004°23'0 0.0
2017-Oct-17 21:51N 47°49' W 004°23'0 0.0
2017-Oct-17 21:27N 47°49' W 004°23'0 0.0
2017-Oct-17 21:00N 47°49' W 004°23'0 0.0
2017-Oct-17 20:27N 47°49' W 004°23'0 0.0
2017-Oct-17 19:58N 47°49' W 004°23'0 0.0
2017-Oct-17 19:28N 47°49' W 004°23'0 0.0
2017-Oct-17 19:01N 47°49' W 004°23'0 0.0
2017-Oct-17 18:28N 47°49' W 004°23'0 0.0
2017-Oct-17 18:00N 47°49' W 004°23'0 0.0
2017-Oct-17 17:28N 47°49' W 004°23'0 0.0
2017-Oct-17 17:01N 47°49' W 004°23'0 0.0
2017-Oct-17 16:29N 47°49' W 004°23'0 0.0
2017-Oct-17 15:57N 47°49' W 004°23'0 0.5
2017-Oct-17 15:30N 47°49' W 004°23'1 1.7
2017-Oct-17 14:58N 47°49' W 004°24'4 8.5
2017-Oct-17 14:28N 47°44' W 004°24'4 8.9
2017-Oct-17 13:58N 47°40' W 004°24'5 2.0
2017-Oct-17 11:38N 47°36' W 004°28'0 0.2
2017-Oct-17 11:15N 47°36' W 004°28'0 0.5
2017-Oct-17 11:00N 47°36' W 004°28'0 0.8
2017-Oct-17 10:26N 47°36' W 004°29'0 0.7
2017-Oct-17 09:53N 47°36' W 004°29'0 0.9
2017-Oct-17 09:27N 47°36' W 004°30'1 0.6
2017-Oct-17 08:19N 47°36' W 004°31'1 3.7
2017-Oct-17 07:57N 47°35' W 004°29'0 0.8
2017-Oct-17 07:30N 47°35' W 004°28'0 0.3
2017-Oct-17 06:42N 47°35' W 004°29'0 0.4
2017-Oct-17 06:27N 47°35' W 004°29'1 0.9
2017-Oct-17 05:44N 47°35' W 004°30'0 0.5
2017-Oct-17 05:30N 47°35' W 004°30'0 0.8
2017-Oct-17 05:00N 47°35' W 004°31'0 0.5
2017-Oct-17 04:30N 47°35' W 004°31'0 0.5
2017-Oct-17 04:00N 47°35' W 004°31'0 0.2
2017-Oct-17 03:14N 47°35' W 004°31'1 3.5
2017-Oct-17 02:54N 47°36' W 004°31'6 7.8
2017-Oct-17 02:08N 47°42' W 004°28'2 7.5
2017-Oct-17 01:49N 47°44' W 004°27'2 7.5
2017-Oct-17 01:30N 47°46' W 004°26'3 6.0
2017-Oct-17 00:59N 47°49' W 004°23'0 0.0
2017-Oct-17 00:30N 47°49' W 004°23'0 0.0
2017-Oct-16 23:59N 47°49' W 004°23'0 0.0
2017-Oct-16 23:28N 47°49' W 004°23'0 0.0
2017-Oct-16 22:58N 47°49' W 004°23'0 0.0
2017-Oct-16 22:29N 47°49' W 004°23'0 0.0
2017-Oct-16 22:00N 47°49' W 004°23'0 0.0
2017-Oct-16 21:30N 47°49' W 004°23'0 0.0
2017-Oct-16 21:00N 47°49' W 004°23'0 0.0
2017-Oct-16 20:30N 47°49' W 004°23'0 0.0
2017-Oct-16 19:59N 47°49' W 004°23'0 0.0
2017-Oct-16 19:30N 47°49' W 004°23'0 0.0
2017-Oct-16 19:00N 47°49' W 004°23'0 0.0
2017-Oct-16 18:31N 47°49' W 004°23'0 0.0
2017-Oct-16 17:58N 47°49' W 004°23'0 0.0
2017-Oct-16 17:31N 47°49' W 004°23'0 0.0
2017-Oct-16 17:00N 47°49' W 004°23'0 0.0
2017-Oct-16 16:30N 47°49' W 004°23'0 0.0
2017-Oct-16 15:59N 47°49' W 004°23'0 0.0
2017-Oct-16 15:29N 47°49' W 004°23'0 0.0
2017-Oct-16 15:00N 47°49' W 004°23'0 0.0
2017-Oct-16 14:29N 47°49' W 004°23'12 1.2
2017-Oct-16 04:26N 47°42' W 004°38'0 0.7
2017-Oct-16 04:00N 47°42' W 004°38'0 0.2
2017-Oct-16 03:29N 47°42' W 004°38'2 2.4
2017-Oct-16 02:31N 47°43' W 004°35'0 7.1
2017-Oct-16 02:30N 47°43' W 004°35'5 7.0
2017-Oct-16 01:48N 47°46' W 004°29'2 7.3
2017-Oct-16 01:29N 47°48' W 004°26'2 0.8
2017-Oct-15 22:35N 47°49' W 004°23'0 0.0
2017-Oct-15 22:30N 47°49' W 004°23'0 0.0
2017-Oct-15 22:00N 47°49' W 004°23'0 0.0
2017-Oct-15 21:30N 47°49' W 004°23'0 0.0
2017-Oct-15 20:49N 47°49' W 004°23'0 0.0
2017-Oct-15 20:26N 47°49' W 004°23'0 0.0
2017-Oct-15 20:00N 47°49' W 004°23'0 0.0
2017-Oct-15 19:30N 47°49' W 004°23'0 0.0
2017-Oct-15 19:00N 47°49' W 004°23'0 0.0
2017-Oct-15 18:30N 47°49' W 004°23'0 0.0
2017-Oct-15 17:57N 47°49' W 004°23'0 0.0
2017-Oct-15 17:30N 47°49' W 004°23'0 0.0
2017-Oct-15 17:00N 47°49' W 004°23'0 0.0
2017-Oct-15 16:30N 47°49' W 004°23'0 0.3
2017-Oct-15 15:40N 47°49' W 004°23'1 4.2
2017-Oct-15 15:30N 47°49' W 004°24'4 8.4
2017-Oct-15 15:00N 47°47' W 004°29'9 8.8
2017-Oct-15 14:00N 47°42' W 004°40'2 3.5
2017-Oct-15 13:30N 47°42' W 004°38'3 6.1
2017-Oct-15 13:00N 47°42' W 004°42'4 8.1
2017-Oct-15 12:30N 47°42' W 004°48'1 1.7
2017-Oct-15 12:00N 47°42' W 004°49'0 0.3
2017-Oct-15 11:30N 47°42' W 004°50'0 0.5
2017-Oct-15 11:00N 47°43' W 004°50'0 0.9
2017-Oct-15 10:30N 47°43' W 004°51'0 0.6
2017-Oct-15 10:00N 47°43' W 004°51'0 0.9
2017-Oct-15 09:30N 47°43' W 004°52'0 0.7
2017-Oct-15 09:00N 47°43' W 004°52'0 0.7
2017-Oct-15 08:30N 47°43' W 004°53'0 0.1
2017-Oct-15 08:00N 47°43' W 004°53'0 0.5
2017-Oct-15 07:30N 47°43' W 004°53'0 0.4
2017-Oct-15 07:00N 47°43' W 004°53'1 1.1
2017-Oct-15 06:30N 47°43' W 004°54'0 0.9
2017-Oct-15 06:00N 47°44' W 004°55'0 0.8
2017-Oct-15 05:29N 47°44' W 004°55'0 0.5
2017-Oct-15 05:01N 47°44' W 004°56'0 0.4
2017-Oct-15 04:29N 47°44' W 004°56'1 0.9
2017-Oct-15 03:52N 47°44' W 004°55'3 8.1
2017-Oct-15 03:31N 47°44' W 004°51'4 8.2
2017-Oct-15 02:59N 47°45' W 004°44'4 8.2
2017-Oct-15 02:26N 47°46' W 004°38'4 8.3
2017-Oct-15 01:57N 47°47' W 004°32'4 8.1
2017-Oct-15 01:25N 47°48' W 004°26'2 4.0
2017-Oct-15 00:53N 47°49' W 004°23'0 0.0
2017-Oct-15 00:29N 47°49' W 004°23'0 0.0
2017-Oct-14 23:58N 47°49' W 004°23'0 0.0
2017-Oct-14 23:29N 47°49' W 004°23'0 0.0
2017-Oct-14 22:58N 47°49' W 004°23'0 0.0
2017-Oct-14 22:30N 47°49' W 004°23'0 0.0
2017-Oct-14 19:34N 47°49' W 004°23'0 0.0
2017-Oct-14 19:23N 47°49' W 004°23'0 0.0
2017-Oct-14 19:00N 47°49' W 004°23'0 0.0
2017-Oct-14 18:30N 47°49' W 004°23'0 0.0
2017-Oct-14 15:19N 47°49' W 004°23'3 7.8
2017-Oct-14 14:55N 47°48' W 004°28'4 8.3
2017-Oct-14 14:26N 47°47' W 004°33'6 8.2
2017-Oct-14 13:41N 47°46' W 004°42'1 8.3
2017-Oct-14 13:30N 47°46' W 004°45'5 8.6
2017-Oct-14 12:58N 47°45' W 004°51'2 2.2
2017-Oct-14 12:10N 47°43' W 004°52'4 5.1
2017-Oct-14 11:22N 47°42' W 004°46'0 0.3
2017-Oct-14 10:58N 47°42' W 004°46'0 0.7
2017-Oct-14 10:30N 47°42' W 004°46'0 0.9
2017-Oct-14 10:00N 47°42' W 004°45'0 0.5
2017-Oct-14 09:30N 47°42' W 004°45'0 0.6
2017-Oct-14 09:00N 47°42' W 004°44'1 0.7
2017-Oct-14 08:17N 47°42' W 004°43'1 0.4
2017-Oct-14 06:32N 47°42' W 004°42'0 0.9
2017-Oct-14 06:29N 47°42' W 004°42'1 1.0
2017-Oct-14 05:56N 47°42' W 004°42'0 0.9
2017-Oct-14 05:30N 47°42' W 004°41'1 0.9
2017-Oct-14 04:50N 47°43' W 004°40'0 0.6
2017-Oct-14 04:23N 47°43' W 004°40'0 0.1
2017-Oct-14 03:05N 47°43' W 004°40'0 1.5
2017-Oct-14 02:59N 47°43' W 004°39'4 7.5
2017-Oct-14 02:28N 47°45' W 004°34'4 7.6
2017-Oct-14 01:54N 47°47' W 004°29'4 7.1
2017-Oct-14 01:19N 47°49' W 004°23'0 0.5
2017-Oct-14 00:47N 47°49' W 004°23'0 0.0
2017-Oct-14 00:27N 47°49' W 004°23'0 0.0
2017-Oct-13 23:41N 47°49' W 004°23'0 0.0
2017-Oct-13 23:21N 47°49' W 004°23'0 0.0
2017-Oct-13 22:59N 47°49' W 004°23'0 0.0
2017-Oct-13 21:22N 47°49' W 004°23'0 0.0
2017-Oct-13 20:35N 47°49' W 004°23'0 0.0
2017-Oct-13 20:20N 47°49' W 004°23'0 0.0
2017-Oct-13 19:52N 47°49' W 004°23'0 0.0
2017-Oct-13 17:39N 47°49' W 004°23'10 1.0
2017-Oct-13 07:39N 47°42' W 004°34'0 0.3
2017-Oct-13 07:16N 47°42' W 004°34'1 4.4
2017-Oct-13 06:59N 47°42' W 004°35'1 1.1
2017-Oct-13 06:14N 47°42' W 004°37'0 0.4
2017-Oct-13 05:54N 47°42' W 004°36'2 0.8
2017-Oct-13 03:55N 47°42' W 004°34'0 0.4
2017-Oct-13 03:16N 47°42' W 004°34'9 4.5
2017-Oct-13 01:15N 47°48' W 004°24'1 3.1
2017-Oct-13 00:54N 47°49' W 004°23'0 0.0
2017-Oct-13 00:21N 47°49' W 004°23'0 0.0
2017-Oct-12 23:50N 47°49' W 004°23'0 0.0
2017-Oct-12 23:29N 47°49' W 004°23'0 0.0
2017-Oct-12 22:17N 47°49' W 004°23'0 0.0
2017-Oct-12 21:53N 47°49' W 004°23'0 0.0
2017-Oct-12 17:36N 47°49' W 004°23'0 0.0
2017-Oct-12 17:27N 47°49' W 004°23'0 0.1
2017-Oct-12 14:30N 47°48' W 004°23'10 1.0
2017-Oct-12 04:32N 47°41' W 004°34'0 0.4
2017-Oct-12 04:27N 47°41' W 004°34'0 0.5
2017-Oct-12 03:28N 47°41' W 004°34'4 2.5
2017-Oct-12 02:02N 47°44' W 004°30'1 7.3
2017-Oct-12 01:54N 47°45' W 004°29'3 7.2
2017-Oct-12 01:25N 47°47' W 004°26'2 0.9
2017-Oct-11 23:01N 47°49' W 004°23'0 0.0
2017-Oct-11 23:00N 47°49' W 004°23'0 0.0
2017-Oct-11 22:30N 47°49' W 004°23'0 0.0
2017-Oct-11 21:59N 47°49' W 004°23'0 0.0
2017-Oct-11 21:28N 47°49' W 004°23'0 0.0
2017-Oct-11 20:58N 47°49' W 004°23'0 0.0
2017-Oct-11 20:28N 47°49' W 004°23'0 0.0
2017-Oct-11 19:58N 47°49' W 004°23'0 0.0
2017-Oct-11 19:08N 47°49' W 004°23'0 0.0
2017-Oct-11 18:49N 47°49' W 004°23'  

Dump ship's entire track history